Terminal Aerodrome Forecast
Issued by NWS Melbourne, FL

Home | Current Version | Previous Version | Text Only | Print | Product List | Glossary On
Versions: 1 2 3 4 5 6 7 8 9 10 11 12 13 14 15 16 17 18 19 20 21
000
FTUS42 KMLB 281726
TAFVRB
TAF
KVRB 281726Z 2818/0118 07011KT 4SM -RA BR OVC016
      TEMPO 2818/2822 2SM -RA BR OVC007
     FM010100 08010KT 6SM BR VCSH BKN007 OVC012
     FM010800 10006KT 4SM BR BKN005
     FM011000 12009KT P6SM SCT008 BKN025=

USA.gov is the U.S. government's official web portal to all federal, state and local government web resources and services.